Time;durP1;ratioP1;P1;durP2;ratioP2;P2;SDS_P1;SDS_P2;PMS_P1;PMS_P2;Temp;Humidity;BMP_temperature;BMP_pressure;BME280_temperature;BME280_humidity;BME280_pressure;Samples;Min_cycle;Max_cycle;Signal;HPM_P1;HPM_P2
2022/01/22 00:00:47;;;;;;;9.18;4.90;;;6.90;99.90;;;;;;5086396;28;20024;-79
2022/01/22 00:03:13;;;;;;;9.43;5.00;;;7.00;99.90;;;;;;5103968;28;20024;-77
2022/01/22 00:05:40;;;;;;;10.45;5.18;;;7.00;99.90;;;;;;5103551;28;20024;-77
2022/01/22 00:08:06;;;;;;;8.10;4.95;;;7.00;99.90;;;;;;5086184;28;20106;-77
2022/01/22 00:10:32;;;;;;;12.25;5.15;;;7.00;99.90;;;;;;5103813;28;20028;-76
2022/01/22 00:15:35;;;;;;;7.93;4.95;;;7.00;99.90;;;;;;5103769;28;20031;-76
2022/01/22 00:18:01;;;;;;;9.05;5.00;;;7.00;99.90;;;;;;5084604;28;20028;-78
2022/01/22 00:20:29;;;;;;;8.23;4.80;;;6.90;99.90;;;;;;5103717;28;20334;-76
2022/01/22 00:22:55;;;;;;;10.75;5.00;;;6.90;99.90;;;;;;5104239;28;20026;-76
2022/01/22 00:25:22;;;;;;;10.13;5.38;;;7.00;99.90;;;;;;5103733;28;20264;-78
2022/01/22 00:27:49;;;;;;;12.52;5.47;;;7.00;99.90;;;;;;5102882;28;20063;-77
2022/01/22 00:30:18;;;;;;;19.05;6.53;;;7.00;99.90;;;;;;5104080;28;20016;-76
2022/01/22 00:32:44;;;;;;;8.50;4.50;;;6.90;99.90;;;;;;5069124;28;20207;-77
2022/01/22 00:35:11;;;;;;;7.88;4.50;;;6.80;99.90;;;;;;5085927;28;20027;-77
2022/01/22 00:37:39;;;;;;;10.52;4.07;;;6.80;99.90;;;;;;5103134;28;20027;-76
2022/01/22 00:40:06;;;;;;;8.63;4.47;;;6.80;99.90;;;;;;5069478;28;20028;-76
2022/01/22 00:42:33;;;;;;;8.55;4.68;;;6.80;99.90;;;;;;5103182;28;20223;-74
2022/01/22 00:44:59;;;;;;;6.95;4.10;;;6.70;99.90;;;;;;5103745;28;20028;-76
2022/01/22 00:47:25;;;;;;;8.23;3.90;;;6.70;99.90;;;;;;5085124;28;20382;-76
2022/01/22 00:49:51;;;;;;;10.68;4.30;;;6.70;99.90;;;;;;5068525;28;20095;-77
2022/01/22 00:52:16;;;;;;;9.18;4.55;;;6.70;99.90;;;;;;5103865;28;20067;-77
2022/01/22 00:54:42;;;;;;;8.75;4.28;;;6.60;99.90;;;;;;5103222;28;20028;-75
2022/01/22 00:57:08;;;;;;;8.07;4.63;;;6.60;99.90;;;;;;5103341;28;20024;-79
2022/01/22 00:59:34;;;;;;;12.63;4.47;;;6.50;99.90;;;;;;5103167;28;20020;-76
2022/01/22 01:02:00;;;;;;;8.65;4.50;;;6.50;99.90;;;;;;5068966;28;20026;-77
2022/01/22 01:04:28;;;;;;;8.13;4.38;;;6.30;99.90;;;;;;5085330;28;20027;-77
2022/01/22 01:06:54;;;;;;;8.25;3.95;;;6.20;99.90;;;;;;5085880;28;20078;-76
2022/01/22 01:09:20;;;;;;;6.88;4.25;;;6.20;99.90;;;;;;5085329;28;20020;-75
2022/01/22 01:11:51;;;;;;;7.88;3.88;;;6.10;99.90;;;;;;5084914;28;20032;-75
2022/01/22 01:14:24;;;;;;;7.78;4.07;;;6.00;99.90;;;;;;5104748;28;20066;-75
2022/01/22 01:17:21;;;;;;;5.25;4.10;;;5.90;99.90;;;;;;5090622;28;20195;-76
2022/01/22 01:33:44;;;;;;;9.68;4.38;;;6.00;99.90;;;;;;5091943;28;20095;-74
2022/01/22 01:36:13;;;;;;;9.93;4.43;;;6.10;99.90;;;;;;5107577;28;20109;-74
2022/01/22 01:38:43;;;;;;;6.35;4.65;;;6.10;99.90;;;;;;5106350;28;20372;-76
2022/01/22 01:41:19;;;;;;;10.68;5.40;;;6.10;99.90;;;;;;5106942;28;20020;-78
2022/01/22 01:43:44;;;;;;;9.02;4.90;;;6.10;99.90;;;;;;5090458;28;20059;-77
2022/01/22 01:46:10;;;;;;;8.80;5.07;;;6.00;99.90;;;;;;5088714;28;20027;-76
2022/01/22 01:48:39;;;;;;;7.60;4.82;;;6.00;99.90;;;;;;5088579;28;20032;-75
2022/01/22 01:51:05;;;;;;;8.45;4.57;;;6.00;99.90;;;;;;5106799;28;20353;-76
2022/01/22 01:59:02;;;;;;;8.50;4.68;;;5.90;99.90;;;;;;5091300;28;20043;-76
2022/01/22 02:01:28;;;;;;;11.15;4.93;;;5.80;99.90;;;;;;5088600;28;20016;-77
2022/01/22 02:03:54;;;;;;;8.90;5.18;;;5.70;99.90;;;;;;5088464;28;20330;-77
2022/01/22 02:06:19;;;;;;;9.10;4.80;;;5.70;99.90;;;;;;5071742;28;20227;-75
2022/01/22 02:08:46;;;;;;;8.75;5.20;;;5.70;99.90;;;;;;5106428;28;20230;-75
2022/01/22 02:11:13;;;;;;;9.55;4.90;;;5.70;99.90;;;;;;5106140;28;20207;-76
2022/01/22 02:24:51;;;;;;;12.00;5.22;;;6.00;99.90;;;;;;5077540;28;20012;-76
2022/01/22 02:27:18;;;;;;;7.63;5.00;;;5.90;99.90;;;;;;5104802;28;20068;-75
2022/01/22 02:29:44;;;;;;;8.48;4.57;;;5.80;99.90;;;;;;5104784;28;20049;-75
2022/01/22 02:35:11;;;;;;;13.20;4.90;;;5.80;99.90;;;;;;5096331;28;20058;-75
2022/01/22 02:37:42;;;;;;;10.60;5.40;;;5.90;99.90;;;;;;5103092;28;20023;-76
2022/01/22 02:40:14;;;;;;;5.55;3.88;;;5.90;99.90;;;;;;5100614;28;20073;-75
2022/01/22 02:42:39;;;;;;;10.57;5.68;;;5.90;99.90;;;;;;5117046;28;20016;-77
2022/01/22 02:45:09;;;;;;;10.23;5.18;;;5.80;99.90;;;;;;5079530;28;20099;-75
2022/01/22 02:47:35;;;;;;;8.90;5.03;;;5.60;99.90;;;;;;5094536;28;20206;-76
2022/01/22 02:50:01;;;;;;;9.27;5.72;;;5.60;99.90;;;;;;5087190;28;20134;-75
2022/01/22 02:52:27;;;;;;;10.00;5.07;;;5.50;99.90;;;;;;5106091;28;20314;-76
2022/01/22 02:54:54;;;;;;;10.23;4.47;;;5.40;99.90;;;;;;5087768;28;20020;-76
2022/01/22 02:57:20;;;;;;;10.57;5.15;;;5.40;99.90;;;;;;5087609;28;20023;-76
2022/01/22 02:59:45;;;;;;;7.32;4.95;;;5.40;99.90;;;;;;5105210;28;20035;-76
2022/01/22 03:02:13;;;;;;;6.63;4.80;;;5.40;99.90;;;;;;5105584;28;20388;-75
2022/01/22 03:04:39;;;;;;;10.25;5.32;;;5.40;99.90;;;;;;5105265;28;20342;-76
2022/01/22 03:07:06;;;;;;;11.55;5.25;;;5.30;99.90;;;;;;5087587;28;20028;-78
2022/01/22 03:09:39;;;;;;;8.23;5.10;;;5.30;99.90;;;;;;5105152;28;20024;-74
2022/01/22 03:12:47;;;;;;;10.88;4.65;;;5.20;99.90;;;;;;5104868;28;20032;-74
2022/01/22 03:15:28;;;;;;;10.27;5.05;;;5.30;99.90;;;;;;5090223;28;20016;-74
2022/01/22 03:27:20;;;;;;;7.63;4.78;;;5.10;99.90;;;;;;5089824;28;20024;-73
2022/01/22 03:28:52;;;;;;;8.55;5.38;;;5.00;99.90;;;;;;5089767;28;20023;-75
2022/01/22 03:31:18;;;;;;;9.35;4.95;;;5.00;99.90;;;;;;5104761;28;20020;-75
2022/01/22 03:33:44;;;;;;;6.45;4.70;;;4.90;99.90;;;;;;5069998;28;20019;-74
2022/01/22 03:36:11;;;;;;;8.90;4.47;;;4.90;99.90;;;;;;5104959;28;20020;-74
2022/01/22 03:38:37;;;;;;;7.93;4.95;;;4.90;99.90;;;;;;5104332;28;20020;-75
2022/01/22 03:41:03;;;;;;;8.57;4.60;;;4.90;99.90;;;;;;5104092;28;20020;-74
2022/01/22 03:43:28;;;;;;;7.35;4.70;;;4.90;99.90;;;;;;5104839;28;20027;-74
2022/01/22 03:45:54;;;;;;;6.63;4.80;;;4.90;99.90;;;;;;5104365;28;20077;-75
2022/01/22 03:48:20;;;;;;;7.03;4.65;;;4.90;99.90;;;;;;5086628;28;20315;-74
2022/01/22 03:50:45;;;;;;;7.65;4.50;;;4.90;99.90;;;;;;5086159;28;20035;-75
2022/01/22 03:53:11;;;;;;;8.13;5.30;;;4.80;99.90;;;;;;5086563;28;20070;-74
2022/01/22 03:56:03;;;;;;;8.38;5.47;;;4.70;99.90;;;;;;5104434;28;20032;-74
2022/01/22 03:58:23;;;;;;;8.05;5.10;;;4.60;99.90;;;;;;5089589;28;20020;-77
2022/01/22 04:00:53;;;;;;;9.40;5.43;;;4.50;99.90;;;;;;5103874;28;20042;-74
2022/01/22 04:03:30;;;;;;;11.10;5.10;;;4.30;99.90;;;;;;5086669;28;20046;-74
2022/01/22 04:06:24;;;;;;;10.25;5.30;;;4.20;99.90;;;;;;5086328;28;20069;-75
2022/01/22 04:08:41;;;;;;;9.30;5.32;;;4.10;99.90;;;;;;5089114;28;20016;-75
2022/01/22 04:11:12;;;;;;;9.65;5.57;;;4.10;99.90;;;;;;5085659;28;20020;-75
2022/01/22 04:13:38;;;;;;;9.68;5.05;;;4.10;99.90;;;;;;5086708;28;20027;-75
2022/01/22 04:16:05;;;;;;;9.55;5.30;;;4.00;99.90;;;;;;5104319;28;20042;-74
2022/01/22 04:24:50;;;;;;;10.85;6.25;;;3.60;99.90;;;;;;5082968;28;20084;-74
2022/01/22 04:26:57;;;;;;;7.90;5.57;;;3.50;99.90;;;;;;5068484;28;20044;-74
2022/01/22 04:29:25;;;;;;;8.88;5.50;;;3.50;99.90;;;;;;5085104;28;20015;-75
2022/01/22 04:31:51;;;;;;;11.32;5.20;;;3.40;99.90;;;;;;5068550;28;20024;-76
2022/01/22 04:34:17;;;;;;;7.13;5.00;;;3.30;99.90;;;;;;5085845;28;20042;-74
2022/01/22 04:36:43;;;;;;;10.75;5.45;;;3.20;99.90;;;;;;5104157;28;20078;-74
2022/01/22 04:39:09;;;;;;;8.95;5.32;;;3.10;99.90;;;;;;5103621;28;20020;-74
2022/01/22 04:41:35;;;;;;;10.35;5.75;;;3.10;99.90;;;;;;5085131;28;20089;-74
2022/01/22 04:44:03;;;;;;;9.38;5.70;;;3.00;99.90;;;;;;5103455;28;20315;-74
2022/01/22 04:52:34;;;;;;;11.13;5.65;;;2.90;99.90;;;;;;5073621;28;20020;-76
2022/01/22 04:55:02;;;;;;;9.73;5.65;;;3.00;99.90;;;;;;5088817;28;20319;-74
2022/01/22 04:57:30;;;;;;;10.18;6.00;;;3.00;99.90;;;;;;5103685;28;20016;-73
2022/01/22 04:59:56;;;;;;;8.48;5.65;;;2.80;99.90;;;;;;5085780;28;20024;-74
2022/01/22 05:02:22;;;;;;;10.65;5.95;;;2.80;99.90;;;;;;5102583;28;20278;-74
2022/01/22 05:04:49;;;;;;;13.00;6.72;;;2.70;99.90;;;;;;5103628;28;20040;-76
2022/01/22 05:07:15;;;;;;;13.82;7.20;;;2.60;99.90;;;;;;5103675;28;20028;-77
2022/01/22 05:09:41;;;;;;;13.77;6.50;;;2.50;99.90;;;;;;5103165;28;20125;-77
2022/01/22 05:12:08;;;;;;;7.82;5.75;;;2.60;99.90;;;;;;5084867;28;20031;-74
2022/01/22 05:14:34;;;;;;;10.65;6.50;;;2.60;99.90;;;;;;5068874;28;20062;-76
2022/01/22 05:17:02;;;;;;;10.95;6.68;;;2.60;99.90;;;;;;5103779;28;20016;-75
2022/01/22 05:22:29;;;;;;;14.75;6.15;;;2.50;99.90;;;;;;5074016;28;20016;-75
2022/01/22 05:24:59;;;;;;;11.30;6.47;;;2.50;99.90;;;;;;5103703;28;20055;-76
2022/01/22 05:30:47;;;;;;;15.43;6.93;;;2.50;99.90;;;;;;5068069;28;20315;-76
2022/01/22 05:33:14;;;;;;;18.42;7.03;;;2.50;99.90;;;;;;5067694;28;20029;-75
2022/01/22 05:38:31;;;;;;;15.95;7.22;;;2.40;99.90;;;;;;5054193;28;20025;-74
2022/01/22 05:40:57;;;;;;;15.25;6.88;;;2.30;99.90;;;;;;5082445;28;20024;-76
2022/01/22 05:43:22;;;;;;;19.60;6.72;;;2.20;99.90;;;;;;5065086;28;20012;-74
2022/01/22 05:45:48;;;;;;;13.68;7.22;;;2.10;99.90;;;;;;5064821;28;20039;-75
2022/01/22 05:48:14;;;;;;;13.40;7.30;;;2.10;99.90;;;;;;5065180;28;20028;-76
2022/01/22 05:50:59;;;;;;;16.85;7.40;;;2.00;99.90;;;;;;5064883;28;20020;-74
2022/01/22 05:53:40;;;;;;;18.23;7.85;;;2.00;99.90;;;;;;5082535;28;20016;-74
2022/01/22 06:01:31;;;;;;;18.08;7.72;;;1.90;99.90;;;;;;5056846;28;20024;-74
2022/01/22 06:03:56;;;;;;;14.02;7.63;;;1.90;99.90;;;;;;5051445;28;20020;-75
2022/01/22 06:06:22;;;;;;;15.85;7.72;;;1.80;99.90;;;;;;5052067;28;20025;-77
2022/01/22 06:08:52;;;;;;;11.15;6.82;;;1.80;99.90;;;;;;5086269;28;20021;-75
2022/01/22 06:11:22;;;;;;;16.30;7.70;;;1.70;99.90;;;;;;5086018;28;20310;-74
2022/01/22 06:13:48;;;;;;;20.90;8.88;;;1.70;99.90;;;;;;5086009;28;20099;-75
2022/01/22 06:16:17;;;;;;;20.98;7.63;;;1.70;99.90;;;;;;5086459;28;20414;-74
2022/01/22 06:18:43;;;;;;;22.63;8.15;;;1.60;99.90;;;;;;5086523;28;20020;-74
2022/01/22 06:21:09;;;;;;;23.33;9.32;;;1.60;99.90;;;;;;5098042;28;20032;-76
2022/01/22 06:23:36;;;;;;;23.17;8.90;;;1.60;99.90;;;;;;5098133;28;20054;-75
2022/01/22 06:26:03;;;;;;;28.85;9.25;;;1.50;99.90;;;;;;5079162;28;20075;-75
2022/01/22 06:28:30;;;;;;;24.75;8.63;;;1.50;99.90;;;;;;5095746;28;20020;-76
2022/01/22 06:30:57;;;;;;;22.08;8.40;;;1.50;99.90;;;;;;5092301;28;20012;-74
2022/01/22 06:33:23;;;;;;;22.48;7.50;;;1.50;99.90;;;;;;5088224;28;20028;-74
2022/01/22 06:35:48;;;;;;;15.02;7.80;;;1.50;99.90;;;;;;5085998;28;20059;-76
2022/01/22 06:38:14;;;;;;;14.98;7.63;;;1.40;99.90;;;;;;5084634;28;20307;-74
2022/01/22 06:43:13;;;;;;;17.55;8.05;;;1.40;99.90;;;;;;5085247;28;20024;-74
2022/01/22 06:45:40;;;;;;;17.08;8.00;;;1.50;99.90;;;;;;5085348;28;20024;-74
2022/01/22 06:48:06;;;;;;;15.35;7.88;;;1.50;99.90;;;;;;5065597;28;20028;-75
2022/01/22 06:50:32;;;;;;;17.50;8.85;;;1.40;99.90;;;;;;5063988;28;20035;-74
2022/01/22 06:52:58;;;;;;;14.05;7.45;;;1.30;99.90;;;;;;5065616;28;20045;-74
2022/01/22 06:58:12;;;;;;;15.55;8.15;;;1.30;99.90;;;;;;5050774;28;20304;-75
2022/01/22 07:00:38;;;;;;;13.15;7.90;;;1.40;99.90;;;;;;5065175;28;20084;-74
2022/01/22 07:03:04;;;;;;;21.45;8.60;;;1.40;99.90;;;;;;5064063;28;20235;-74
2022/01/22 07:05:30;;;;;;;19.13;8.10;;;1.30;99.90;;;;;;5080503;28;20283;-75
2022/01/22 07:07:56;;;;;;;16.77;7.70;;;1.40;99.90;;;;;;5065182;28;20017;-75
2022/01/22 07:10:22;;;;;;;16.98;8.30;;;1.30;99.90;;;;;;5080704;28;20248;-76
2022/01/22 07:12:48;;;;;;;15.30;8.77;;;1.20;99.90;;;;;;5063855;28;20020;-76
2022/01/22 07:15:14;;;;;;;17.25;8.35;;;1.20;99.90;;;;;;5063559;28;20051;-76
2022/01/22 07:17:40;;;;;;;14.70;8.35;;;1.10;99.90;;;;;;5064850;28;20063;-75
2022/01/22 07:20:16;;;;;;;18.75;8.02;;;1.20;99.90;;;;;;5066532;28;20036;-75
2022/01/22 07:23:03;;;;;;;17.88;7.60;;;1.20;99.90;;;;;;5084876;28;20214;-76
2022/01/22 07:25:29;;;;;;;12.32;7.70;;;1.20;99.90;;;;;;5083810;28;20020;-76
2022/01/22 07:27:55;;;;;;;18.27;8.23;;;1.20;99.90;;;;;;5103244;28;20055;-75
2022/01/22 07:30:20;;;;;;;15.70;8.05;;;1.10;99.90;;;;;;5104382;28;20020;-74
2022/01/22 07:32:46;;;;;;;13.05;8.10;;;1.00;99.90;;;;;;5104831;28;20016;-74
2022/01/22 07:35:17;;;;;;;16.20;8.77;;;1.10;99.90;;;;;;5104720;28;20043;-74
2022/01/22 07:37:42;;;;;;;13.02;7.80;;;1.10;99.90;;;;;;5070984;28;20028;-75
2022/01/22 07:40:10;;;;;;;14.43;7.72;;;1.10;99.90;;;;;;5104704;28;20023;-75
2022/01/22 07:42:37;;;;;;;13.77;7.90;;;1.00;99.90;;;;;;5086770;28;20016;-76
2022/01/22 07:45:03;;;;;;;15.45;9.07;;;1.00;99.90;;;;;;5086642;28;20012;-74
2022/01/22 07:47:30;;;;;;;15.18;8.90;;;0.90;99.90;;;;;;5071946;28;20223;-74
2022/01/22 07:49:55;;;;;;;15.18;8.25;;;0.90;99.90;;;;;;5090288;28;20019;-75
2022/01/22 07:52:22;;;;;;;18.50;9.13;;;0.90;99.90;;;;;;5089975;28;20042;-76
2022/01/22 07:54:47;;;;;;;17.00;7.88;;;0.90;99.90;;;;;;5107697;28;20101;-74
2022/01/22 07:57:13;;;;;;;16.55;8.50;;;0.90;99.90;;;;;;5106633;28;20032;-74
2022/01/22 07:59:39;;;;;;;18.33;8.50;;;0.90;99.90;;;;;;5086653;28;20024;-76
2022/01/22 08:02:05;;;;;;;20.52;8.75;;;0.90;99.90;;;;;;5104037;28;20373;-75
2022/01/22 08:04:31;;;;;;;18.10;7.80;;;0.80;99.90;;;;;;5104287;28;20023;-76
2022/01/22 08:06:59;;;;;;;17.05;9.00;;;0.90;99.90;;;;;;5104185;28;20379;-76
2022/01/22 08:09:25;;;;;;;18.92;8.40;;;0.90;99.90;;;;;;5086785;28;20069;-76
2022/01/22 08:11:50;;;;;;;21.50;9.20;;;0.80;99.90;;;;;;5085552;28;20279;-76
2022/01/22 08:14:16;;;;;;;23.73;9.45;;;0.80;99.90;;;;;;5103932;28;20024;-75
2022/01/22 08:16:46;;;;;;;14.95;8.07;;;0.80;99.90;;;;;;5103943;28;20024;-76
2022/01/22 08:19:13;;;;;;;14.38;8.15;;;0.90;99.90;;;;;;5069869;28;20319;-77
2022/01/22 08:21:38;;;;;;;21.33;9.27;;;1.00;99.90;;;;;;5103900;28;20124;-75
2022/01/22 08:24:04;;;;;;;18.42;9.18;;;1.00;99.90;;;;;;5103817;28;20642;-76
2022/01/22 08:26:35;;;;;;;20.58;8.95;;;1.00;99.90;;;;;;5103566;28;20383;-77
2022/01/22 08:29:02;;;;;;;21.52;13.05;;;1.00;99.90;;;;;;5101592;28;20049;-75
2022/01/22 08:37:01;;;;;;;21.33;10.35;;;0.90;99.90;;;;;;5088729;28;20236;-76
2022/01/22 08:39:27;;;;;;;19.85;9.95;;;0.90;99.90;;;;;;5085791;28;20024;-76
2022/01/22 08:41:53;;;;;;;20.77;8.93;;;0.90;99.90;;;;;;5102871;28;20024;-75
2022/01/22 08:44:18;;;;;;;22.52;9.23;;;1.00;99.90;;;;;;5069109;28;20054;-75
2022/01/22 08:46:44;;;;;;;19.50;9.27;;;1.00;99.90;;;;;;5068327;28;20039;-75
2022/01/22 08:49:10;;;;;;;27.27;12.13;;;1.10;99.90;;;;;;5085948;28;20028;-75
2022/01/22 08:51:38;;;;;;;21.88;9.40;;;1.10;99.90;;;;;;5085699;28;20334;-76
2022/01/22 08:54:05;;;;;;;18.13;9.95;;;1.00;99.90;;;;;;5103480;28;20036;-76
2022/01/22 08:56:30;;;;;;;19.00;9.45;;;1.10;99.90;;;;;;5085399;28;20334;-76
2022/01/22 08:58:57;;;;;;;19.00;9.88;;;1.20;99.90;;;;;;5085598;28;20024;-77
2022/01/22 09:01:23;;;;;;;19.45;11.07;;;1.20;99.90;;;;;;5085543;28;20303;-77
2022/01/22 09:03:49;;;;;;;17.85;10.07;;;1.30;99.90;;;;;;5068478;28;20028;-76
2022/01/22 09:06:17;;;;;;;18.90;9.82;;;1.40;99.90;;;;;;5084924;28;20020;-76
2022/01/22 09:08:49;;;;;;;17.23;10.48;;;1.40;99.90;;;;;;5103488;28;20024;-75
2022/01/22 09:11:15;;;;;;;;;;;1.60;99.90;;;;;;5086683;28;20020;-75
2022/01/22 09:13:40;;;;;;;18.13;9.00;;;1.60;99.90;;;;;;5085479;28;19954;-77
2022/01/22 09:16:06;;;;;;;17.98;10.23;;;1.80;99.90;;;;;;5103068;28;20032;-73
2022/01/22 09:18:32;;;;;;;20.58;11.10;;;1.80;99.90;;;;;;5085520;28;20308;-74
2022/01/22 09:21:04;;;;;;;30.50;13.43;;;1.80;99.90;;;;;;5085563;28;20077;-77
2022/01/22 09:23:32;;;;;;;20.50;11.00;;;1.70;99.90;;;;;;5103250;28;20207;-77
2022/01/22 09:25:58;;;;;;;18.13;10.18;;;1.80;99.90;;;;;;5100669;28;20068;-78
2022/01/22 09:28:26;;;;;;;16.90;9.63;;;1.90;99.90;;;;;;5085273;28;20035;-75
2022/01/22 09:30:52;;;;;;;17.88;9.18;;;2.00;99.90;;;;;;5083707;28;20047;-74
2022/01/22 09:33:17;;;;;;;19.83;10.20;;;2.10;99.90;;;;;;5085101;28;20020;-76
2022/01/22 09:35:43;;;;;;;20.20;10.40;;;2.10;99.90;;;;;;5086890;28;20031;-76
2022/01/22 09:38:09;;;;;;;16.73;10.13;;;2.00;99.90;;;;;;5088764;28;20210;-75
2022/01/22 09:40:35;;;;;;;19.20;10.38;;;2.10;99.90;;;;;;5072740;28;20020;-74
2022/01/22 09:43:01;;;;;;;20.98;10.43;;;2.20;99.90;;;;;;5071864;28;20020;-74
2022/01/22 09:45:29;;;;;;;22.52;10.32;;;2.20;99.90;;;;;;5088847;28;20364;-75
2022/01/22 09:47:58;;;;;;;20.20;10.45;;;2.20;99.90;;;;;;5071849;28;20049;-76
2022/01/22 09:50:25;;;;;;;21.88;10.63;;;2.40;99.90;;;;;;5072257;28;20298;-75
2022/01/22 09:52:51;;;;;;;21.20;10.80;;;2.50;99.90;;;;;;5089105;28;20050;-75
2022/01/22 09:55:17;;;;;;;21.98;12.40;;;2.60;99.90;;;;;;5088835;28;20337;-76
2022/01/22 09:57:44;;;;;;;22.75;11.75;;;2.70;99.90;;;;;;5088612;28;20036;-75
2022/01/22 10:00:13;;;;;;;22.38;11.50;;;2.80;99.90;;;;;;5109415;28;20080;-74
2022/01/22 10:02:40;;;;;;;22.00;11.95;;;2.90;99.90;;;;;;5101444;28;20027;-75
2022/01/22 10:05:24;;;;;;;22.85;12.25;;;2.90;99.90;;;;;;5117937;28;20016;-75
2022/01/22 10:07:52;;;;;;;22.33;11.27;;;2.90;99.90;;;;;;5117196;28;20052;-75
2022/01/22 10:10:18;;;;;;;20.70;12.07;;;3.00;99.90;;;;;;5114776;28;20039;-76
2022/01/22 10:12:51;;;;;;;22.98;12.52;;;3.20;99.90;;;;;;5078844;28;20238;-76
2022/01/22 10:15:19;;;;;;;23.55;12.38;;;3.20;99.90;;;;;;5072559;28;20073;-77
2022/01/22 10:17:51;;;;;;;25.73;12.27;;;3.40;99.90;;;;;;5071782;28;20043;-77
2022/01/22 10:20:35;;;;;;;21.17;12.20;;;3.40;99.90;;;;;;5088276;28;20203;-76
2022/01/22 10:23:09;;;;;;;22.48;11.93;;;3.60;99.90;;;;;;5072093;28;20246;-77
2022/01/22 10:25:42;;;;;;;25.33;12.45;;;3.60;99.90;;;;;;5106069;28;20018;-77
2022/01/22 10:28:14;;;;;;;18.98;11.23;;;3.70;99.90;;;;;;5088576;28;20056;-76
2022/01/22 10:30:44;;;;;;;25.45;11.65;;;3.90;99.90;;;;;;5086429;28;20385;-76
2022/01/22 10:33:31;;;;;;;20.67;10.57;;;3.90;99.90;;;;;;5071531;28;20061;-75
2022/01/22 10:36:19;;;;;;;19.73;10.85;;;4.00;99.90;;;;;;5105835;28;20035;-77
2022/01/22 10:38:49;;;;;;;20.58;11.40;;;4.00;99.90;;;;;;5091424;28;20057;-78
2022/01/22 10:41:20;;;;;;;20.45;11.45;;;4.20;99.90;;;;;;5105716;28;20062;-78
2022/01/22 10:43:52;;;;;;;27.73;11.05;;;4.30;99.90;;;;;;5072220;28;20066;-79
2022/01/22 10:46:20;;;;;;;23.27;11.35;;;4.40;99.90;;;;;;5086605;28;20047;-74
2022/01/22 10:49:07;;;;;;;20.88;11.10;;;4.60;99.90;;;;;;5070824;28;20019;-75
2022/01/22 10:51:57;;;;;;;19.67;10.35;;;4.80;99.90;;;;;;5105834;28;20295;-76
2022/01/22 10:54:25;;;;;;;24.25;10.55;;;4.90;99.90;;;;;;5087671;28;20311;-75
2022/01/22 10:56:52;;;;;;;22.98;10.43;;;5.10;99.90;;;;;;5071003;28;20023;-76
2022/01/22 10:59:20;;;;;;;24.33;11.18;;;5.20;99.90;;;;;;5105496;28;20027;-76
2022/01/22 11:01:56;;;;;;;21.02;9.73;;;5.20;99.90;;;;;;5070489;28;20022;-76
2022/01/22 11:04:42;;;;;;;16.08;11.02;;;5.20;99.90;;;;;;5071264;28;20024;-75
2022/01/22 11:07:15;;;;;;;19.27;10.35;;;5.20;99.90;;;;;;5087582;28;20129;-76
2022/01/22 11:09:41;;;;;;;17.30;10.63;;;5.30;99.90;;;;;;5070501;28;20113;-76
2022/01/22 11:12:08;;;;;;;23.40;10.30;;;5.30;99.90;;;;;;5087345;28;20032;-78
2022/01/22 11:14:36;;;;;;;19.55;10.90;;;5.40;99.90;;;;;;5105277;28;20091;-77
2022/01/22 11:17:03;;;;;;;17.08;10.07;;;5.60;99.90;;;;;;5105378;28;20016;-77
2022/01/22 11:19:32;;;;;;;21.25;9.88;;;5.60;99.90;;;;;;5087052;28;20082;-77
2022/01/22 11:22:11;;;;;;;14.98;9.10;;;5.70;99.90;;;;;;5105232;28;20076;-79
2022/01/22 11:24:40;;;;;;;16.60;9.73;;;5.90;99.90;;;;;;5104966;28;20287;-77
2022/01/22 11:27:08;;;;;;;21.90;9.55;;;6.10;99.90;;;;;;5086859;28;20119;-78
2022/01/22 11:29:41;;;;;;;16.73;9.30;;;6.30;99.90;;;;;;5103489;28;20030;-75
2022/01/22 11:32:10;;;;;;;14.93;8.65;;;6.40;99.90;;;;;;5085009;28;20028;-79
2022/01/22 11:34:39;;;;;;;13.52;8.45;;;6.60;99.90;;;;;;5104910;28;20020;-76
2022/01/22 11:37:44;;;;;;;12.63;8.52;;;6.80;99.90;;;;;;5087188;28;20100;-77
2022/01/22 11:40:27;;;;;;;17.48;9.55;;;7.00;99.90;;;;;;5078439;28;20020;-77
2022/01/22 11:43:04;;;;;;;14.40;8.02;;;6.90;99.90;;;;;;5088432;28;20027;-77
2022/01/22 11:45:34;;;;;;;19.42;9.05;;;7.10;99.90;;;;;;5104273;28;20019;-75
2022/01/22 11:48:28;;;;;;;15.65;8.60;;;7.20;99.90;;;;;;5104557;28;20019;-80
2022/01/22 11:50:56;;;;;;;17.83;8.55;;;7.30;99.90;;;;;;5090463;28;20031;-78
2022/01/22 11:53:38;;;;;;;15.93;8.35;;;7.30;99.90;;;;;;5070114;28;20245;-76
2022/01/22 11:56:23;;;;;;;14.90;8.52;;;7.40;99.90;;;;;;5070110;28;20058;-78
2022/01/22 11:59:15;;;;;;;17.85;8.55;;;7.50;99.90;;;;;;5103693;28;20020;-78
2022/01/22 12:01:56;;;;;;;18.02;8.32;;;7.40;99.90;;;;;;5073393;28;20023;-78
2022/01/22 12:04:29;;;;;;;14.77;8.43;;;7.50;99.90;;;;;;5086421;28;20315;-75
2022/01/22 12:07:14;;;;;;;13.27;8.52;;;7.50;99.90;;;;;;5104341;28;20440;-75
2022/01/22 12:15:49;;;;;;;14.45;8.40;;;7.60;99.90;;;;;;5077900;28;20019;-77
2022/01/22 12:18:18;;;;;;;14.68;8.52;;;7.60;99.90;;;;;;5089029;28;20020;-76
2022/01/22 12:21:31;;;;;;;16.55;8.02;;;7.60;99.90;;;;;;5085449;28;20023;-78
2022/01/22 12:23:49;;;;;;;14.07;8.32;;;7.70;99.90;;;;;;5089114;28;20024;-79
2022/01/22 12:26:15;;;;;;;15.68;9.15;;;7.80;99.90;;;;;;5085685;28;20121;-78
2022/01/22 12:28:44;;;;;;;15.77;8.02;;;7.80;99.90;;;;;;5103927;28;20222;-77
2022/01/22 12:31:16;;;;;;;16.33;7.70;;;7.90;99.90;;;;;;5102642;28;20023;-77
2022/01/22 12:33:48;;;;;;;16.83;8.20;;;7.80;99.90;;;;;;5101885;28;20020;-77
2022/01/22 12:36:25;;;;;;;13.65;8.27;;;7.70;99.90;;;;;;5069154;28;20235;-76
2022/01/22 12:39:16;;;;;;;14.57;8.30;;;7.60;99.90;;;;;;5069544;28;20031;-76
2022/01/22 12:41:51;;;;;;;15.68;9.00;;;7.70;99.90;;;;;;5103483;28;20206;-77
2022/01/22 12:44:28;;;;;;;15.60;9.13;;;7.70;99.90;;;;;;5103721;28;20089;-77
2022/01/22 12:46:58;;;;;;;13.30;7.95;;;7.60;99.90;;;;;;5069794;28;20024;-77
2022/01/22 12:49:25;;;;;;;13.40;7.70;;;7.60;99.90;;;;;;5068945;28;20023;-77
2022/01/22 12:52:04;;;;;;;14.90;7.30;;;7.70;99.90;;;;;;5068400;28;20498;-75
2022/01/22 12:54:36;;;;;;;14.43;8.23;;;7.60;99.90;;;;;;5103689;28;20016;-78
2022/01/22 12:57:08;;;;;;;13.63;7.80;;;7.60;99.90;;;;;;5068782;28;20024;-78
2022/01/22 13:00:12;;;;;;;15.85;7.30;;;7.60;99.90;;;;;;5068192;28;20216;-76
2022/01/22 13:02:51;;;;;;;12.45;6.78;;;7.50;99.90;;;;;;5087330;28;20020;-74
2022/01/22 13:05:19;;;;;;;16.65;7.57;;;7.50;99.90;;;;;;5103836;28;20016;-75
2022/01/22 13:07:52;;;;;;;11.38;6.85;;;7.50;99.90;;;;;;5085455;28;20044;-77
2022/01/22 13:10:22;;;;;;;13.75;7.00;;;7.60;99.90;;;;;;5070529;28;20028;-75
2022/01/22 13:12:48;;;;;;;11.82;6.07;;;7.70;99.90;;;;;;5089649;28;20024;-77
2022/01/22 13:15:16;;;;;;;13.73;6.38;;;7.70;99.90;;;;;;5107833;28;20043;-76
2022/01/22 13:17:50;;;;;;;13.68;6.85;;;7.80;99.90;;;;;;5089494;28;20020;-77
2022/01/22 13:20:21;;;;;;;13.35;6.50;;;7.90;99.90;;;;;;5088825;28;21683;-77
2022/01/22 13:22:47;;;;;;;15.82;6.82;;;7.90;99.70;;;;;;5089661;28;20023;-77
2022/01/22 13:25:14;;;;;;;13.77;6.68;;;7.90;99.40;;;;;;5106698;28;20028;-77
2022/01/22 13:27:42;;;;;;;12.02;6.68;;;7.90;99.40;;;;;;5088922;28;20058;-76
2022/01/22 13:30:11;;;;;;;10.98;6.38;;;7.90;99.50;;;;;;5088830;28;20057;-77
2022/01/22 13:32:57;;;;;;;11.68;7.18;;;8.00;99.50;;;;;;5089353;28;20045;-75
2022/01/22 13:35:52;;;;;;;17.10;6.15;;;8.10;99.40;;;;;;5091516;28;20039;-74
2022/01/22 13:45:03;;;;;;;13.43;6.38;;;8.00;98.50;;;;;;5077724;28;20206;-76
2022/01/22 13:49:30;;;;;;;13.50;6.93;;;7.80;98.90;;;;;;5089828;28;20073;-77
2022/01/22 13:52:04;;;;;;;16.27;7.43;;;7.80;98.70;;;;;;5098215;28;20082;-75
2022/01/22 13:54:33;;;;;;;13.13;7.40;;;7.80;99.00;;;;;;5097012;28;20024;-76
2022/01/22 13:57:05;;;;;;;12.07;7.07;;;7.90;99.10;;;;;;5090819;28;20055;-77
2022/01/22 13:59:35;;;;;;;10.38;6.65;;;8.10;99.10;;;;;;5106489;28;20024;-79
2022/01/22 14:02:39;;;;;;;13.43;7.57;;;8.30;98.60;;;;;;5071694;28;20023;-78
2022/01/22 14:05:07;;;;;;;14.65;7.15;;;8.30;98.20;;;;;;5094313;28;20115;-76
2022/01/22 14:07:44;;;;;;;12.30;7.78;;;8.50;98.00;;;;;;5071755;28;20023;-78
2022/01/22 14:10:22;;;;;;;12.10;7.20;;;8.50;97.70;;;;;;5106640;28;20034;-77
2022/01/22 14:12:55;;;;;;;13.52;7.55;;;8.60;97.50;;;;;;5087946;28;20380;-78
2022/01/22 14:15:36;;;;;;;13.75;6.70;;;8.70;97.50;;;;;;5106558;28;20019;-76
2022/01/22 14:18:19;;;;;;;12.45;7.03;;;8.70;97.40;;;;;;5088695;28;20008;-75
2022/01/22 14:20:51;;;;;;;12.32;7.70;;;8.70;97.30;;;;;;5105830;28;20028;-77
2022/01/22 14:23:29;;;;;;;;;;;8.70;97.40;;;;;;5089258;28;20036;-79
2022/01/22 14:26:27;;;;;;;15.27;7.30;;;8.80;97.30;;;;;;5088107;28;20186;-75
2022/01/22 14:28:58;;;;;;;15.32;8.55;;;8.80;97.10;;;;;;5092411;28;20323;-77
2022/01/22 14:31:47;;;;;;;15.98;7.85;;;8.70;97.60;;;;;;5087726;28;20314;-78
2022/01/22 14:34:31;;;;;;;15.77;8.77;;;8.70;97.80;;;;;;5090049;28;20012;-78
2022/01/22 14:36:58;;;;;;;16.75;9.05;;;8.70;97.90;;;;;;5088698;28;20019;-78
2022/01/22 14:43:46;;;;;;;13.48;8.90;;;8.70;97.80;;;;;;5071482;28;20095;-77